Terminal Aerodrome Forecast
Issued by NWS Grand Junction, CO

Home | Current Version | Previous Version | Text Only | Print | Product List | Glossary On
Versions: 1 2 3 4 5 6 7 8 9 10 11 12 13 14 15 16 17 18 19 20 21 22 23 24 25
000
FTUS45 KGJT 230542
TAFGJT
TAF
KGJT 230542Z 2306/2406 32004KT P6SM VCSH SCT035 BKN070 BKN090
      TEMPO 2306/2307 6SM -RA SCT025 BKN030
     FM230700 33007KT P6SM VCSH BKN050
      TEMPO 2307/2311 4SM -SN BR BKN025 OVC040
     FM231100 32006KT P6SM VCSH SCT030 BKN040
     FM231800 31010KT P6SM SCT070 BKN120
     FM240200 34009KT P6SM SCT080=

USA.gov is the U.S. government's official web portal to all federal, state and local government web resources and services.